Boa Vista の空港の天気 - METARとTAF

ボア・ヴィスタ国際空港 ( SBBV / BVB ) - ブラジル ロライマ州、Boa Vista
飛行場実況気象(Metar)
観測時間01/16 15:00 AMT (01/16 19:00 UTC)
風向・風速東南東 5m/s
視程10km以上
天気現象
全天の4割程度の雲 雲底高度 1220m
少しの雲 雲底高度 1370m
気温34℃
湿度41%
気圧1009hPa
METARSBBV 161900Z 12010KT 9999 SCT040 FEW045TCU 34/19 Q1009
過去の天気等 Google飛行場航空写真 Wunderground天気予報

過去48時間のMETAR

飛行場予報(TAF)
発表時間: 1/16 11:50 AMT (1/16 15:50 UTC)
予報対象時間: 16日14時 AMT ~ 17日14時 AMT
風向・風速東 5m/s
視程10km以上
全天の4割程度の雲 雲底高度 610m
少しの塔状積雲 雲底高度 910m
16日14時 AMT ~ 16日17時 AMT に徐々に
風向・風速東南東 3m/s
16日20時 AMT ~ 16日22時 AMT に徐々に
風向・風速東北東 3m/s
全天の4割程度の雲 雲底高度 610m
17日8時 AMT ~ 17日10時 AMT に徐々に
風向・風速東 5m/s
TAF SBBV 161550Z 1618/1718 09010KT 9999 SCT020 FEW030TCU TN24/1708Z TX32/1718Z
BECMG 1618/1621 11006KT
BECMG 1700/1702 06005KT SCT020
BECMG 1712/1714 08010KT RMK PGW